Aeroporto :
LOGIN :

Iscrizione | Disclaimer

   EN    FR    IT 

 










Sommario :    VFR   VFR Marginale   IFR   IFR Intensivo   IFR Molto Intensivo
Visibilità : 
Base nubi : 
>= 8 km
>= 3000ft
5 / 8 km
1000 / 3000 ft
1500m / 5 km
500 / 1000 ft
800 / 1500m
200 / 500 ft
< 800m
< 200 ft
Simboli :   Temporali  Nebbia  Neve Forte  Precipitazioni Forti  Vento > 20 kt
SIGMETs :   Varie  Temporali  Ghiacco  Turbolenza  Onda orograficha  Ceneri Vulcaniche






- Altitudine del aeroporto : 194 ft


EBCV - Chièvres

ULTIMO METAR :
  • 210625Z AUTO 22009KT 9999 NCD 03/01 Q1026 BLU

METARs OBSOLETI :
  • 210555Z AUTO 22008KT 9999 NCD 02/00 Q1026 BLU
  • 210525Z AUTO 23009KT 9999 FEW250/// 03/01 Q1026 BLU
  • 210455Z AUTO 23009KT 9999 FEW240/// 03/01 Q1026 BLU
  • 210425Z AUTO 22008KT 9999 NCD 03/00 Q1026 BLU
  • 210355Z AUTO 23009KT 9999 NCD 03/00 Q1025 BLU

TAF TAF EBCV
Valido dal 21 a 07 ore il 21 a 16 ore UTC


210541Z 2107/2116 23010KT 9999 FEW025 SCT170
BECMG 2110/2112 23015G25KT FEW020 BKN030 BY EBWM



MetMap, La meteo Aeronautica in un colpo d'occhio ! - Copyright ORBIFLY Dicembre 2007 - Disclaimer

ORBIFLY MET'MAP TEAM :

Programmazione e sviluppo : Alexandra Zaïnal
Concezione : Baudouin d'Aumeries
Aiuto per la programmazione : Marc-Olivier Méhu
Supporto tecnico e logistico : Manuel Goepfert
Aiuto per la traduzione : Arnaldo La Scala

Contatto : metmap@orbifly.com




FONTI E CREDITI :

   NOAA